createdAt,value
2022-08-26T00:02:14.571Z,23.25
2022-08-26T00:04:46.545Z,23.23
2022-08-26T00:07:17.492Z,23.20
2022-08-26T00:09:48.826Z,23.19
2022-08-26T00:12:21.142Z,23.18
2022-08-26T00:15:09.043Z,23.16
2022-08-26T00:17:40.423Z,23.15
2022-08-26T00:20:14.450Z,23.11
2022-08-26T00:22:46.428Z,23.06
2022-08-26T00:25:18.423Z,23.03
2022-08-26T00:27:49.401Z,23.03
2022-08-26T00:30:24.189Z,23.00
2022-08-26T00:32:58.669Z,22.97
2022-08-26T00:35:30.715Z,22.90
2022-08-26T00:38:04.834Z,22.85
2022-08-26T00:40:38.299Z,22.81
2022-08-26T00:43:10.276Z,22.75
2022-08-26T00:45:46.426Z,22.69
2022-08-26T00:48:20.944Z,22.67
2022-08-26T00:50:57.769Z,22.63
2022-08-26T00:53:33.285Z,22.59
2022-08-26T00:56:07.875Z,22.54
2022-08-26T00:58:43.110Z,22.46
2022-08-26T01:01:15.259Z,22.42
2022-08-26T01:03:47.807Z,22.37
2022-08-26T01:06:18.631Z,22.38
2022-08-26T01:08:49.495Z,22.42
2022-08-26T01:11:21.022Z,22.46
2022-08-26T01:13:54.785Z,22.52
2022-08-26T01:16:26.715Z,22.56
2022-08-26T01:19:04.270Z,22.59
2022-08-26T01:21:42.863Z,22.60
2022-08-26T01:24:14.256Z,22.58
2022-08-26T01:26:46.717Z,22.53
2022-08-26T01:29:21.985Z,22.49
2022-08-26T01:31:56.939Z,22.51
2022-08-26T01:34:30.858Z,22.54
2022-08-26T01:37:06.906Z,22.57
2022-08-26T01:39:39.339Z,22.61
2022-08-26T01:42:15.122Z,22.62
2022-08-26T01:44:50.235Z,22.62
2022-08-26T01:47:24.567Z,22.59
2022-08-26T01:49:58.006Z,22.57
2022-08-26T01:52:32.797Z,22.56
2022-08-26T01:55:04.057Z,22.56
2022-08-26T01:57:35.789Z,22.55
2022-08-26T02:00:14.329Z,22.54
2022-08-26T02:02:50.327Z,22.57
2022-08-26T02:05:23.146Z,22.57
2022-08-26T02:07:54.600Z,22.55
2022-08-26T02:10:25.389Z,22.40
2022-08-26T02:12:56.527Z,22.20
2022-08-26T02:15:28.499Z,22.11
2022-08-26T02:17:59.505Z,22.03
2022-08-26T02:20:30.959Z,21.93
2022-08-26T02:23:01.861Z,21.86
2022-08-26T02:25:41.584Z,21.84
2022-08-26T02:28:14.408Z,21.86
2022-08-26T02:30:46.780Z,21.88
2022-08-26T02:33:17.481Z,21.97
2022-08-26T02:35:50.030Z,22.05
2022-08-26T02:38:21.668Z,22.12
2022-08-26T02:40:52.810Z,22.17
2022-08-26T02:43:31.164Z,22.20
2022-08-26T02:46:02.799Z,22.19
2022-08-26T02:48:33.560Z,22.19
2022-08-26T02:51:04.482Z,22.18
2022-08-26T02:53:35.717Z,22.16
2022-08-26T02:56:08.430Z,22.14
2022-08-26T02:58:39.213Z,22.07
2022-08-26T03:01:19.803Z,21.98
2022-08-26T03:03:50.849Z,21.89
2022-08-26T03:06:23.320Z,21.87
2022-08-26T03:08:55.838Z,21.82
2022-08-26T03:11:30.949Z,21.69
2022-08-26T03:14:04.785Z,21.65
2022-08-26T03:16:37.286Z,21.64
2022-08-26T03:19:10.089Z,21.63
2022-08-26T03:21:41.168Z,21.63
2022-08-26T03:24:12.906Z,21.60
2022-08-26T03:26:52.920Z,21.51
2022-08-26T03:29:42.154Z,21.36
2022-08-26T03:32:12.913Z,21.22
2022-08-26T03:34:43.555Z,21.13
2022-08-26T03:37:14.862Z,21.14
2022-08-26T03:39:45.529Z,21.17
2022-08-26T03:42:16.346Z,21.17
2022-08-26T03:44:47.194Z,21.12
2022-08-26T03:47:18.434Z,21.09
2022-08-26T03:49:49.103Z,21.10
2022-08-26T03:52:22.732Z,21.11
2022-08-26T03:54:53.381Z,21.16
2022-08-26T03:57:24.033Z,21.22
2022-08-26T03:59:54.688Z,21.20
2022-08-26T04:02:25.701Z,21.16
2022-08-26T04:04:56.783Z,21.04
2022-08-26T04:07:28.273Z,20.94
2022-08-26T04:10:02.867Z,20.90
2022-08-26T04:12:33.596Z,20.90
2022-08-26T04:15:05.048Z,20.93
2022-08-26T04:17:35.891Z,20.91
2022-08-26T04:20:08.123Z,20.90
2022-08-26T04:22:39.866Z,20.89
2022-08-26T04:25:13.126Z,20.89
2022-08-26T04:27:43.838Z,20.97
2022-08-26T04:30:16.008Z,21.07
2022-08-26T04:32:47.402Z,21.15
2022-08-26T04:35:18.578Z,21.22
2022-08-26T04:37:53.022Z,21.31
2022-08-26T04:40:24.374Z,21.42
2022-08-26T04:42:56.873Z,21.50
2022-08-26T04:45:26.895Z,21.46
2022-08-26T04:47:58.564Z,21.44
2022-08-26T04:50:29.331Z,21.49
2022-08-26T04:53:01.039Z,21.56
2022-08-26T04:55:38.227Z,21.66
2022-08-26T04:58:10.636Z,21.78
2022-08-26T05:00:41.546Z,21.87
2022-08-26T05:03:12.214Z,21.90
2022-08-26T05:05:47.369Z,21.90
2022-08-26T05:08:19.948Z,21.90
2022-08-26T05:10:54.623Z,21.81
2022-08-26T05:13:28.660Z,21.73
2022-08-26T05:16:03.234Z,21.67
2022-08-26T05:18:34.713Z,21.64
2022-08-26T05:21:07.373Z,21.64
2022-08-26T05:23:39.017Z,21.64
2022-08-26T05:26:11.730Z,21.64
2022-08-26T05:28:42.586Z,21.63
2022-08-26T05:31:18.461Z,21.66
2022-08-26T05:33:49.702Z,21.69
2022-08-26T05:36:24.656Z,21.69
2022-08-26T05:38:59.022Z,21.68
2022-08-26T05:41:34.355Z,21.63
2022-08-26T05:44:09.998Z,21.63
2022-08-26T05:46:42.588Z,21.64
2022-08-26T05:49:16.706Z,21.70
2022-08-26T05:51:48.169Z,21.77
2022-08-26T05:54:22.298Z,21.84
2022-08-26T05:56:52.408Z,21.89
2022-08-26T05:59:24.451Z,21.94
2022-08-26T06:01:56.332Z,21.91
2022-08-26T06:04:27.811Z,22.00
2022-08-26T06:07:00.300Z,22.04
2022-08-26T06:09:31.546Z,22.07
2022-08-26T06:12:03.440Z,22.08
2022-08-26T06:14:36.212Z,22.07
2022-08-26T06:17:09.626Z,22.09
2022-08-26T06:19:41.389Z,22.15
2022-08-26T06:22:24.493Z,22.22
2022-08-26T06:25:14.394Z,22.32
2022-08-26T06:27:45.015Z,22.46
2022-08-26T06:30:16.701Z,22.66
2022-08-26T06:32:46.018Z,22.88
2022-08-26T06:35:16.916Z,23.17
2022-08-26T06:37:47.663Z,23.35
2022-08-26T06:40:18.603Z,23.55
2022-08-26T06:42:50.195Z,23.80
2022-08-26T06:45:21.533Z,24.05
2022-08-26T06:47:52.910Z,24.34
2022-08-26T06:50:23.613Z,24.60
2022-08-26T06:52:55.691Z,24.75
2022-08-26T06:55:27.822Z,24.92
2022-08-26T06:57:59.032Z,25.06
2022-08-26T07:00:32.091Z,25.24
2022-08-26T07:03:03.080Z,25.43
2022-08-26T07:05:35.070Z,25.60
2022-08-26T07:08:06.610Z,25.74
2022-08-26T07:10:38.252Z,25.94
2022-08-26T07:13:10.202Z,26.03
2022-08-26T07:15:43.966Z,26.00
2022-08-26T07:18:14.622Z,26.03
2022-08-26T07:20:45.560Z,26.00
2022-08-26T07:23:16.564Z,25.93
2022-08-26T07:25:48.361Z,25.86
2022-08-26T07:28:20.066Z,25.74
2022-08-26T07:30:50.844Z,25.68
2022-08-26T07:33:23.926Z,25.64
2022-08-26T07:35:54.678Z,25.66
2022-08-26T07:38:25.378Z,25.69
2022-08-26T07:40:56.624Z,25.82
2022-08-26T07:43:27.364Z,25.90
2022-08-26T07:46:00.183Z,26.02
2022-08-26T07:48:31.357Z,26.22
2022-08-26T07:51:05.377Z,26.40
2022-08-26T07:53:36.890Z,26.57
2022-08-26T07:56:08.089Z,26.74
2022-08-26T07:58:40.465Z,26.94
2022-08-26T08:01:09.784Z,27.19
2022-08-26T08:03:41.252Z,27.39
2022-08-26T08:06:12.089Z,27.57
2022-08-26T08:08:42.781Z,27.66
2022-08-26T08:11:13.696Z,27.83
2022-08-26T08:13:44.439Z,27.98
2022-08-26T08:16:16.646Z,28.10
2022-08-26T08:18:47.974Z,28.26
2022-08-26T08:21:23.587Z,28.45
2022-08-26T08:23:57.433Z,28.60
2022-08-26T08:26:28.798Z,28.71
2022-08-26T08:28:59.948Z,28.85
2022-08-26T08:31:56.169Z,28.99
2022-08-26T08:34:21.582Z,29.16
2022-08-26T08:36:53.211Z,29.29
2022-08-26T08:39:24.960Z,29.40
2022-08-26T08:42:13.384Z,29.48
2022-08-26T08:44:52.031Z,29.55
2022-08-26T08:47:30.903Z,29.68
2022-08-26T08:50:05.565Z,29.79
2022-08-26T08:52:38.347Z,29.76
2022-08-26T08:55:14.803Z,29.75
2022-08-26T08:58:02.265Z,29.85
2022-08-26T09:00:44.259Z,30.03
2022-08-26T09:03:29.674Z,30.21
2022-08-26T09:06:02.966Z,30.25
2022-08-26T09:08:37.460Z,30.40
2022-08-26T09:11:08.684Z,30.58
2022-08-26T09:13:41.222Z,30.70
2022-08-26T09:16:18.943Z,30.84
2022-08-26T09:19:12.242Z,30.96
2022-08-26T09:21:43.306Z,31.02
2022-08-26T09:24:15.193Z,30.94
2022-08-26T09:26:50.041Z,30.83
2022-08-26T09:29:27.901Z,30.67
2022-08-26T09:32:19.423Z,30.38
2022-08-26T09:35:00.000Z,30.03
2022-08-26T09:40:27.475Z,29.39
2022-08-26T09:43:13.612Z,29.13
2022-08-26T09:45:51.171Z,28.89
2022-08-26T09:48:36.022Z,28.65
2022-08-26T09:51:27.497Z,28.42
2022-08-26T09:54:00.651Z,28.22
2022-08-26T09:56:33.437Z,28.03
2022-08-26T09:59:06.500Z,27.86
2022-08-26T10:01:41.958Z,27.71
2022-08-26T10:04:16.274Z,27.61
2022-08-26T10:07:00.232Z,27.50
2022-08-26T10:09:34.399Z,27.35
2022-08-26T10:12:09.386Z,27.23
2022-08-26T10:14:47.525Z,27.15
2022-08-26T10:17:30.918Z,27.08
2022-08-26T10:20:15.785Z,27.03
2022-08-26T10:23:00.443Z,27.01
2022-08-26T10:25:35.479Z,26.95
2022-08-26T10:28:13.413Z,26.89
2022-08-26T10:30:51.637Z,26.82
2022-08-26T10:33:23.833Z,26.75
2022-08-26T10:35:58.591Z,26.72
2022-08-26T10:38:34.902Z,26.70
2022-08-26T10:41:13.122Z,26.77
2022-08-26T10:43:50.139Z,26.83
2022-08-26T10:46:27.502Z,26.88
2022-08-26T10:49:03.191Z,26.93
2022-08-26T10:51:45.640Z,26.98
2022-08-26T10:54:21.940Z,27.04
2022-08-26T10:57:02.587Z,27.05
2022-08-26T10:59:47.624Z,27.06
2022-08-26T11:02:26.542Z,27.02
2022-08-26T11:04:59.424Z,26.88
2022-08-26T11:07:40.713Z,26.80
2022-08-26T11:10:34.002Z,26.79
2022-08-26T11:13:06.987Z,26.88
2022-08-26T11:16:01.415Z,27.04
2022-08-26T11:18:48.715Z,27.21
2022-08-26T11:22:07.164Z,27.32
2022-08-26T11:24:46.886Z,27.54
2022-08-26T11:27:55.074Z,27.79
2022-08-26T11:30:56.811Z,27.99
2022-08-26T11:33:58.174Z,28.28
2022-08-26T11:36:51.362Z,28.47
2022-08-26T11:39:28.630Z,28.66
2022-08-26T11:42:03.093Z,28.78
2022-08-26T11:44:49.411Z,28.85
2022-08-26T11:47:29.540Z,28.98
2022-08-26T11:50:19.131Z,29.12
2022-08-26T11:53:02.030Z,29.19
2022-08-26T11:55:34.996Z,29.28
2022-08-26T11:58:07.687Z,29.41
2022-08-26T12:00:52.575Z,29.42
2022-08-26T12:03:27.070Z,29.37
2022-08-26T12:05:58.953Z,29.32
2022-08-26T12:08:31.219Z,29.30
2022-08-26T12:11:13.826Z,29.29
2022-08-26T12:13:54.718Z,29.27
2022-08-26T12:16:30.134Z,29.36
2022-08-26T12:19:01.013Z,29.50
2022-08-26T12:21:34.907Z,29.53
2022-08-26T12:24:07.216Z,29.53
2022-08-26T12:26:39.588Z,29.52
2022-08-26T12:29:27.255Z,29.45
2022-08-26T12:32:14.453Z,29.41
2022-08-26T12:34:49.322Z,29.45
2022-08-26T12:37:20.980Z,29.42
2022-08-26T12:39:52.439Z,29.44
2022-08-26T12:42:43.523Z,29.37
2022-08-26T12:45:14.758Z,29.25
2022-08-26T12:47:48.393Z,29.27
2022-08-26T12:50:25.338Z,29.39
2022-08-26T12:53:04.459Z,29.53
2022-08-26T12:55:42.830Z,29.62
2022-08-26T12:58:23.581Z,29.70
2022-08-26T13:00:55.856Z,29.77
2022-08-26T13:03:43.874Z,29.76
2022-08-26T13:06:30.032Z,29.82
2022-08-26T13:09:06.367Z,29.85
2022-08-26T13:11:57.452Z,29.89
2022-08-26T13:14:28.342Z,29.93
2022-08-26T13:16:59.378Z,29.93
2022-08-26T13:19:31.482Z,29.96
2022-08-26T13:22:05.388Z,30.01
2022-08-26T13:24:39.199Z,30.01
2022-08-26T13:27:12.943Z,29.99
2022-08-26T13:29:43.714Z,29.93
2022-08-26T13:32:15.436Z,29.92
2022-08-26T13:34:51.291Z,29.92
2022-08-26T13:37:24.514Z,29.88
2022-08-26T13:40:10.402Z,29.80
2022-08-26T13:42:49.375Z,29.68
2022-08-26T13:45:20.808Z,29.55
2022-08-26T13:47:51.793Z,29.44
2022-08-26T13:50:22.582Z,29.37
2022-08-26T13:52:53.671Z,29.34
2022-08-26T13:55:24.779Z,29.32
2022-08-26T13:57:56.305Z,29.29
2022-08-26T14:00:27.169Z,29.24
2022-08-26T14:02:58.651Z,29.17
2022-08-26T14:05:29.977Z,29.11
2022-08-26T14:08:01.079Z,29.03
2022-08-26T14:10:31.986Z,28.92
2022-08-26T14:13:02.736Z,28.78
2022-08-26T14:15:54.989Z,28.60
2022-08-26T14:18:31.255Z,28.46
2022-08-26T14:21:02.168Z,28.39
2022-08-26T14:23:33.115Z,28.36
2022-08-26T14:26:08.199Z,28.32
2022-08-26T14:28:39.395Z,28.32
2022-08-26T14:31:11.768Z,28.32
2022-08-26T14:33:42.650Z,28.32
2022-08-26T14:36:31.532Z,28.35
2022-08-26T14:39:06.064Z,28.45
2022-08-26T14:41:39.358Z,28.53
2022-08-26T14:44:14.620Z,28.59
2022-08-26T14:46:48.618Z,28.63
2022-08-26T14:49:20.674Z,28.72
2022-08-26T14:51:51.592Z,28.80
2022-08-26T14:54:41.248Z,28.86
2022-08-26T14:57:15.679Z,28.92
2022-08-26T14:59:50.550Z,28.97
2022-08-26T15:02:33.543Z,29.00
2022-08-26T15:05:05.237Z,29.00
2022-08-26T15:07:36.013Z,29.06
2022-08-26T15:10:08.644Z,29.08
2022-08-26T15:12:40.421Z,29.07
2022-08-26T15:15:15.005Z,29.06
2022-08-26T15:17:46.327Z,29.02
2022-08-26T15:20:20.609Z,29.02
2022-08-26T15:22:51.408Z,29.04
2022-08-26T15:25:24.568Z,29.06
2022-08-26T15:27:55.433Z,29.07
2022-08-26T15:30:27.348Z,29.09
2022-08-26T15:32:58.392Z,29.08
2022-08-26T15:35:29.264Z,29.03
2022-08-26T15:38:03.868Z,29.00
2022-08-26T15:40:34.685Z,28.97
2022-08-26T15:43:25.773Z,28.92
2022-08-26T15:45:57.943Z,28.84
2022-08-26T15:48:29.434Z,28.81
2022-08-26T15:51:01.994Z,28.77
2022-08-26T15:53:34.923Z,28.74
2022-08-26T15:56:06.511Z,28.66
2022-08-26T15:58:39.100Z,28.52
2022-08-26T16:01:11.807Z,28.34
2022-08-26T16:03:42.481Z,28.21
2022-08-26T16:06:16.018Z,28.07
2022-08-26T16:08:46.818Z,27.90
2022-08-26T16:11:18.923Z,27.76
2022-08-26T16:13:50.141Z,27.63
2022-08-26T16:16:21.574Z,27.50
2022-08-26T16:18:52.411Z,27.38
2022-08-26T16:21:27.871Z,27.28
2022-08-26T16:23:59.310Z,27.21
2022-08-26T16:26:33.314Z,27.13
2022-08-26T16:29:07.669Z,27.03
2022-08-26T16:31:39.091Z,26.93
2022-08-26T16:34:10.990Z,26.81
2022-08-26T16:36:42.145Z,26.69
2022-08-26T16:39:13.119Z,26.57
2022-08-26T16:41:44.293Z,26.49
2022-08-26T16:44:15.039Z,26.42
2022-08-26T16:46:46.224Z,26.39
2022-08-26T16:49:17.022Z,26.32
2022-08-26T16:51:47.826Z,26.23
2022-08-26T16:54:18.730Z,26.12
2022-08-26T16:56:49.713Z,26.03
2022-08-26T16:59:20.633Z,25.94
2022-08-26T17:01:51.759Z,25.85
2022-08-26T17:04:22.602Z,25.73
2022-08-26T17:06:53.587Z,25.59
2022-08-26T17:09:24.497Z,25.46
2022-08-26T17:11:55.602Z,25.35
2022-08-26T17:14:26.809Z,25.27
2022-08-26T17:16:57.750Z,25.24
2022-08-26T17:19:29.208Z,25.23
2022-08-26T17:22:05.735Z,25.20
2022-08-26T17:24:37.454Z,25.18
2022-08-26T17:27:08.853Z,25.17
2022-08-26T17:29:39.708Z,25.16
2022-08-26T17:32:10.497Z,25.10
2022-08-26T17:34:41.167Z,25.07
2022-08-26T17:37:11.933Z,25.09
2022-08-26T17:39:44.115Z,25.08
2022-08-26T17:42:15.099Z,25.08
2022-08-26T17:44:48.694Z,25.04
2022-08-26T17:47:19.730Z,24.99
2022-08-26T17:49:50.593Z,24.95
2022-08-26T17:52:21.558Z,24.92
2022-08-26T17:54:54.234Z,24.89
2022-08-26T17:57:25.259Z,24.86
2022-08-26T17:59:56.284Z,24.85
2022-08-26T18:02:34.358Z,24.83
2022-08-26T18:05:03.458Z,24.83
2022-08-26T18:07:34.948Z,24.82
2022-08-26T18:10:17.609Z,24.81
2022-08-26T18:12:48.991Z,24.78
2022-08-26T18:15:22.482Z,24.79
2022-08-26T18:17:53.280Z,24.79
2022-08-26T18:20:24.130Z,24.82
2022-08-26T18:22:55.039Z,24.85
2022-08-26T18:25:26.113Z,24.88
2022-08-26T18:27:56.922Z,24.90
2022-08-26T18:30:27.920Z,24.90
2022-08-26T18:32:58.698Z,24.89
2022-08-26T18:35:30.430Z,24.86
2022-08-26T18:38:10.610Z,24.82
2022-08-26T18:40:43.566Z,24.76
2022-08-26T18:43:14.703Z,24.69
2022-08-26T18:45:45.530Z,24.64
2022-08-26T18:48:16.745Z,24.62
2022-08-26T18:50:47.595Z,24.58
2022-08-26T18:53:18.475Z,24.59
2022-08-26T18:55:49.133Z,24.59
2022-08-26T18:58:19.880Z,24.66
2022-08-26T19:00:50.595Z,24.68
2022-08-26T19:03:21.487Z,24.68
2022-08-26T19:05:52.563Z,24.67
2022-08-26T19:08:23.381Z,24.64
2022-08-26T19:10:54.075Z,24.63
2022-08-26T19:13:24.836Z,24.61
2022-08-26T19:15:55.677Z,24.59
2022-08-26T19:18:26.486Z,24.54
2022-08-26T19:20:57.434Z,24.48
2022-08-26T19:23:32.255Z,24.43
2022-08-26T19:26:06.823Z,24.42
2022-08-26T19:28:39.733Z,24.42
2022-08-26T19:31:11.719Z,24.45
2022-08-26T19:33:45.114Z,24.49
2022-08-26T19:36:17.881Z,24.51
2022-08-26T19:38:49.313Z,24.49
2022-08-26T19:41:24.562Z,24.46
2022-08-26T19:43:58.987Z,24.41
2022-08-26T19:46:30.628Z,24.32
2022-08-26T19:49:01.367Z,24.27
2022-08-26T19:51:34.933Z,24.22
2022-08-26T19:54:06.637Z,24.15
2022-08-26T19:56:37.557Z,24.09
2022-08-26T19:59:08.243Z,24.06
2022-08-26T20:01:39.058Z,24.07
2022-08-26T20:04:10.139Z,24.09
2022-08-26T20:06:40.864Z,24.09
2022-08-26T20:09:11.930Z,24.07
2022-08-26T20:11:42.716Z,24.02
2022-08-26T20:14:13.606Z,23.96
2022-08-26T20:16:47.591Z,23.90
2022-08-26T20:19:37.607Z,23.86
2022-08-26T20:22:08.875Z,23.83
2022-08-26T20:24:40.014Z,23.86
2022-08-26T20:27:10.835Z,23.90
2022-08-26T20:29:43.047Z,23.94
2022-08-26T20:32:14.253Z,23.97
2022-08-26T20:34:45.226Z,24.00
2022-08-26T20:37:16.191Z,24.03
2022-08-26T20:39:52.570Z,24.06
2022-08-26T20:42:23.390Z,24.05
2022-08-26T20:44:54.768Z,24.03
2022-08-26T20:47:24.376Z,23.96
2022-08-26T20:49:55.168Z,23.85
2022-08-26T20:52:26.445Z,23.75
2022-08-26T20:54:57.173Z,23.69
2022-08-26T20:57:28.079Z,23.68
2022-08-26T20:59:58.852Z,23.64
2022-08-26T21:02:29.692Z,23.59
2022-08-26T21:05:00.859Z,23.55
2022-08-26T21:07:31.625Z,23.51
2022-08-26T21:10:02.362Z,23.49
2022-08-26T21:12:33.033Z,23.48
2022-08-26T21:15:04.538Z,23.50
2022-08-26T21:17:35.887Z,23.51
2022-08-26T21:20:08.466Z,23.51
2022-08-26T21:22:39.234Z,23.51
2022-08-26T21:25:11.417Z,23.52
2022-08-26T21:27:42.127Z,23.51
2022-08-26T21:30:15.529Z,23.49
2022-08-26T21:32:46.311Z,23.50
2022-08-26T21:35:17.462Z,23.50
2022-08-26T21:37:48.221Z,23.48
2022-08-26T21:40:19.494Z,23.45
2022-08-26T21:42:50.463Z,23.42
2022-08-26T21:45:21.538Z,23.40
2022-08-26T21:47:52.469Z,23.41
2022-08-26T21:50:23.512Z,23.41
2022-08-26T21:52:54.262Z,23.38
2022-08-26T21:55:25.025Z,23.34
2022-08-26T21:57:56.282Z,23.30
2022-08-26T22:00:28.517Z,23.27
2022-08-26T22:03:00.915Z,23.26
2022-08-26T22:05:32.476Z,23.26
2022-08-26T22:08:03.308Z,23.28
2022-08-26T22:10:34.427Z,23.27
2022-08-26T22:13:06.566Z,23.23
2022-08-26T22:15:40.460Z,23.15
2022-08-26T22:18:11.302Z,23.11
2022-08-26T22:20:44.401Z,23.11
2022-08-26T22:23:15.156Z,23.14
2022-08-26T22:25:46.316Z,23.16
2022-08-26T22:28:17.740Z,23.15
2022-08-26T22:30:49.581Z,23.16
2022-08-26T22:33:22.695Z,23.13
2022-08-26T22:35:54.596Z,23.13
2022-08-26T22:38:25.506Z,23.12
2022-08-26T22:40:57.508Z,23.09
2022-08-26T22:43:29.957Z,23.06
2022-08-26T22:46:00.862Z,23.05
2022-08-26T22:48:31.787Z,23.03
2022-08-26T22:51:02.534Z,22.99
2022-08-26T22:53:35.855Z,22.98
2022-08-26T22:56:09.858Z,23.00
2022-08-26T22:58:40.614Z,23.02
2022-08-26T23:01:11.450Z,23.02
2022-08-26T23:03:42.413Z,23.02
2022-08-26T23:06:13.614Z,23.01
2022-08-26T23:08:47.532Z,23.00
2022-08-26T23:11:19.199Z,23.01
2022-08-26T23:13:50.424Z,23.01
2022-08-26T23:16:21.451Z,23.00
2022-08-26T23:18:52.283Z,22.94
2022-08-26T23:21:25.517Z,22.90
2022-08-26T23:23:56.409Z,22.88
2022-08-26T23:26:27.231Z,22.89
2022-08-26T23:28:58.514Z,22.93
2022-08-26T23:31:29.447Z,22.96
2022-08-26T23:34:18.275Z,22.97
2022-08-26T23:36:49.322Z,22.97
2022-08-26T23:39:26.380Z,22.92
2022-08-26T23:41:58.175Z,22.94
2022-08-26T23:44:30.544Z,22.91
2022-08-26T23:47:02.375Z,22.92
2022-08-26T23:49:33.884Z,22.92
2022-08-26T23:52:24.231Z,22.90
2022-08-26T23:54:55.634Z,22.86
2022-08-26T23:57:28.759Z,22.84
2022-08-26T23:59:59.574Z,22.82
